sensor_id;sensor_type;location;lat;lon;timestamp;P1;durP1;ratioP1;P2;durP2;ratioP2
31210;SDS011;17836;50.948;3.946;2022-09-29T00:01:30;8.63;;;5.63;;
31210;SDS011;17836;50.948;3.946;2022-09-29T00:03:55;6.70;;;5.20;;
31210;SDS011;17836;50.948;3.946;2022-09-29T00:06:20;10.25;;;5.70;;
31210;SDS011;17836;50.948;3.946;2022-09-29T00:08:46;6.25;;;5.60;;
31210;SDS011;17836;50.948;3.946;2022-09-29T00:11:13;8.13;;;5.95;;
31210;SDS011;17836;50.948;3.946;2022-09-29T00:13:38;5.90;;;5.30;;
31210;SDS011;17836;50.948;3.946;2022-09-29T00:16:04;11.85;;;6.10;;
31210;SDS011;17836;50.948;3.946;2022-09-29T00:18:29;9.15;;;5.40;;
31210;SDS011;17836;50.948;3.946;2022-09-29T00:20:56;5.07;;;4.55;;
31210;SDS011;17836;50.948;3.946;2022-09-29T00:23:24;6.80;;;5.68;;
31210;SDS011;17836;50.948;3.946;2022-09-29T00:26:09;6.55;;;4.72;;
31210;SDS011;17836;50.948;3.946;2022-09-29T00:28:35;5.75;;;5.18;;
31210;SDS011;17836;50.948;3.946;2022-09-29T00:31:02;7.45;;;5.90;;
31210;SDS011;17836;50.948;3.946;2022-09-29T00:33:28;6.60;;;5.05;;
31210;SDS011;17836;50.948;3.946;2022-09-29T00:35:57;8.02;;;5.25;;
31210;SDS011;17836;50.948;3.946;2022-09-29T00:38:24;5.93;;;4.72;;
31210;SDS011;17836;50.948;3.946;2022-09-29T00:40:49;6.10;;;4.93;;
31210;SDS011;17836;50.948;3.946;2022-09-29T00:43:18;5.40;;;4.73;;
31210;SDS011;17836;50.948;3.946;2022-09-29T00:45:44;6.25;;;4.80;;
31210;SDS011;17836;50.948;3.946;2022-09-29T00:48:12;5.88;;;4.70;;
31210;SDS011;17836;50.948;3.946;2022-09-29T00:53:04;5.90;;;4.93;;
31210;SDS011;17836;50.948;3.946;2022-09-29T00:55:37;6.93;;;4.75;;
31210;SDS011;17836;50.948;3.946;2022-09-29T01:00:47;6.35;;;4.68;;
31210;SDS011;17836;50.948;3.946;2022-09-29T01:03:14;5.50;;;5.00;;
31210;SDS011;17836;50.948;3.946;2022-09-29T01:05:51;6.50;;;4.78;;
31210;SDS011;17836;50.948;3.946;2022-09-29T01:10:44;7.83;;;4.77;;
31210;SDS011;17836;50.948;3.946;2022-09-29T01:13:11;6.28;;;4.90;;
31210;SDS011;17836;50.948;3.946;2022-09-29T01:15:36;8.50;;;5.30;;
31210;SDS011;17836;50.948;3.946;2022-09-29T01:18:02;7.47;;;5.30;;
31210;SDS011;17836;50.948;3.946;2022-09-29T01:20:27;5.90;;;5.10;;
31210;SDS011;17836;50.948;3.946;2022-09-29T01:33:21;8.43;;;4.97;;
31210;SDS011;17836;50.948;3.946;2022-09-29T01:36:07;6.75;;;5.18;;
31210;SDS011;17836;50.948;3.946;2022-09-29T01:38:41;5.75;;;4.97;;
31210;SDS011;17836;50.948;3.946;2022-09-29T01:46:05;5.65;;;5.05;;
31210;SDS011;17836;50.948;3.946;2022-09-29T01:48:33;7.80;;;5.55;;
31210;SDS011;17836;50.948;3.946;2022-09-29T01:51:02;11.18;;;6.85;;
31210;SDS011;17836;50.948;3.946;2022-09-29T01:53:33;6.25;;;5.22;;
31210;SDS011;17836;50.948;3.946;2022-09-29T01:56:01;6.43;;;5.85;;
31210;SDS011;17836;50.948;3.946;2022-09-29T01:58:38;6.63;;;5.63;;
31210;SDS011;17836;50.948;3.946;2022-09-29T02:01:06;8.45;;;5.75;;
31210;SDS011;17836;50.948;3.946;2022-09-29T02:03:35;8.57;;;5.95;;
31210;SDS011;17836;50.948;3.946;2022-09-29T02:06:02;6.93;;;6.22;;
31210;SDS011;17836;50.948;3.946;2022-09-29T02:11:06;7.85;;;6.13;;
31210;SDS011;17836;50.948;3.946;2022-09-29T02:13:40;7.15;;;5.88;;
31210;SDS011;17836;50.948;3.946;2022-09-29T02:16:09;6.85;;;6.13;;
31210;SDS011;17836;50.948;3.946;2022-09-29T02:18:40;6.68;;;5.72;;
31210;SDS011;17836;50.948;3.946;2022-09-29T02:21:07;8.70;;;6.07;;
31210;SDS011;17836;50.948;3.946;2022-09-29T02:23:32;7.10;;;5.57;;
31210;SDS011;17836;50.948;3.946;2022-09-29T02:25:58;7.13;;;6.43;;
31210;SDS011;17836;50.948;3.946;2022-09-29T02:28:23;7.70;;;6.88;;
31210;SDS011;17836;50.948;3.946;2022-09-29T02:30:49;7.88;;;6.85;;
31210;SDS011;17836;50.948;3.946;2022-09-29T02:33:22;7.50;;;6.75;;
31210;SDS011;17836;50.948;3.946;2022-09-29T02:36:04;8.50;;;7.13;;
31210;SDS011;17836;50.948;3.946;2022-09-29T02:38:39;10.95;;;7.70;;
31210;SDS011;17836;50.948;3.946;2022-09-29T02:49:32;13.35;;;8.07;;
31210;SDS011;17836;50.948;3.946;2022-09-29T02:52:08;11.77;;;8.07;;
31210;SDS011;17836;50.948;3.946;2022-09-29T02:59:30;8.50;;;7.50;;
31210;SDS011;17836;50.948;3.946;2022-09-29T03:01:58;9.45;;;8.63;;
31210;SDS011;17836;50.948;3.946;2022-09-29T03:04:25;20.03;;;9.27;;
31210;SDS011;17836;50.948;3.946;2022-09-29T03:06:51;11.20;;;9.23;;
31210;SDS011;17836;50.948;3.946;2022-09-29T03:09:16;15.00;;;9.73;;
31210;SDS011;17836;50.948;3.946;2022-09-29T03:11:42;11.90;;;8.23;;
31210;SDS011;17836;50.948;3.946;2022-09-29T03:14:07;11.50;;;10.30;;
31210;SDS011;17836;50.948;3.946;2022-09-29T03:16:33;10.80;;;9.35;;
31210;SDS011;17836;50.948;3.946;2022-09-29T03:18:59;11.45;;;10.32;;
31210;SDS011;17836;50.948;3.946;2022-09-29T03:21:24;11.55;;;10.45;;
31210;SDS011;17836;50.948;3.946;2022-09-29T03:23:49;11.07;;;9.60;;
31210;SDS011;17836;50.948;3.946;2022-09-29T03:26:15;13.07;;;10.00;;
31210;SDS011;17836;50.948;3.946;2022-09-29T03:28:40;12.35;;;9.63;;
31210;SDS011;17836;50.948;3.946;2022-09-29T03:31:07;11.25;;;10.07;;
31210;SDS011;17836;50.948;3.946;2022-09-29T03:33:34;15.63;;;10.90;;
31210;SDS011;17836;50.948;3.946;2022-09-29T03:35:59;13.65;;;10.60;;
31210;SDS011;17836;50.948;3.946;2022-09-29T03:38:25;10.70;;;9.73;;
31210;SDS011;17836;50.948;3.946;2022-09-29T03:40:50;13.75;;;10.50;;
31210;SDS011;17836;50.948;3.946;2022-09-29T03:43:19;14.43;;;11.23;;
31210;SDS011;17836;50.948;3.946;2022-09-29T03:45:48;13.83;;;11.53;;
31210;SDS011;17836;50.948;3.946;2022-09-29T03:48:14;13.10;;;11.60;;
31210;SDS011;17836;50.948;3.946;2022-09-29T03:50:39;12.52;;;11.27;;
31210;SDS011;17836;50.948;3.946;2022-09-29T03:53:05;14.70;;;11.07;;
31210;SDS011;17836;50.948;3.946;2022-09-29T03:55:30;14.10;;;10.85;;
31210;SDS011;17836;50.948;3.946;2022-09-29T03:57:55;12.63;;;11.37;;
31210;SDS011;17836;50.948;3.946;2022-09-29T04:00:21;14.57;;;11.27;;
31210;SDS011;17836;50.948;3.946;2022-09-29T04:02:46;12.45;;;11.25;;
31210;SDS011;17836;50.948;3.946;2022-09-29T04:05:11;16.07;;;11.20;;
31210;SDS011;17836;50.948;3.946;2022-09-29T04:07:37;12.27;;;10.95;;
31210;SDS011;17836;50.948;3.946;2022-09-29T04:10:03;13.80;;;11.65;;
31210;SDS011;17836;50.948;3.946;2022-09-29T04:12:28;17.08;;;12.00;;
31210;SDS011;17836;50.948;3.946;2022-09-29T04:14:53;16.70;;;11.70;;
31210;SDS011;17836;50.948;3.946;2022-09-29T04:17:19;21.30;;;12.07;;
31210;SDS011;17836;50.948;3.946;2022-09-29T04:19:45;19.23;;;11.43;;
31210;SDS011;17836;50.948;3.946;2022-09-29T04:22:10;15.10;;;11.77;;
31210;SDS011;17836;50.948;3.946;2022-09-29T04:24:36;14.80;;;12.40;;
31210;SDS011;17836;50.948;3.946;2022-09-29T04:27:01;17.37;;;11.97;;
31210;SDS011;17836;50.948;3.946;2022-09-29T04:29:26;16.02;;;11.40;;
31210;SDS011;17836;50.948;3.946;2022-09-29T04:31:52;15.50;;;12.82;;
31210;SDS011;17836;50.948;3.946;2022-09-29T04:34:17;14.47;;;11.23;;
31210;SDS011;17836;50.948;3.946;2022-09-29T04:36:42;21.63;;;12.33;;
31210;SDS011;17836;50.948;3.946;2022-09-29T04:39:08;23.30;;;12.48;;
31210;SDS011;17836;50.948;3.946;2022-09-29T04:41:33;14.90;;;12.07;;
31210;SDS011;17836;50.948;3.946;2022-09-29T04:44:00;15.63;;;11.48;;
31210;SDS011;17836;50.948;3.946;2022-09-29T04:46:26;14.32;;;12.38;;
31210;SDS011;17836;50.948;3.946;2022-09-29T04:48:51;15.77;;;10.80;;
31210;SDS011;17836;50.948;3.946;2022-09-29T04:51:16;17.73;;;12.07;;
31210;SDS011;17836;50.948;3.946;2022-09-29T04:53:42;14.02;;;12.55;;
31210;SDS011;17836;50.948;3.946;2022-09-29T04:56:07;17.40;;;12.25;;
31210;SDS011;17836;50.948;3.946;2022-09-29T04:58:33;18.00;;;13.73;;
31210;SDS011;17836;50.948;3.946;2022-09-29T05:01:09;18.48;;;13.70;;
31210;SDS011;17836;50.948;3.946;2022-09-29T05:03:35;19.98;;;15.90;;
31210;SDS011;17836;50.948;3.946;2022-09-29T05:06:00;19.45;;;15.60;;
31210;SDS011;17836;50.948;3.946;2022-09-29T05:08:27;17.67;;;14.80;;
31210;SDS011;17836;50.948;3.946;2022-09-29T05:10:52;29.25;;;18.70;;
31210;SDS011;17836;50.948;3.946;2022-09-29T05:13:18;33.08;;;20.75;;
31210;SDS011;17836;50.948;3.946;2022-09-29T05:15:43;29.30;;;21.00;;
31210;SDS011;17836;50.948;3.946;2022-09-29T05:18:08;27.07;;;18.60;;
31210;SDS011;17836;50.948;3.946;2022-09-29T05:20:33;27.58;;;17.88;;
31210;SDS011;17836;50.948;3.946;2022-09-29T05:22:59;26.33;;;17.60;;
31210;SDS011;17836;50.948;3.946;2022-09-29T05:25:25;17.83;;;15.43;;
31210;SDS011;17836;50.948;3.946;2022-09-29T05:27:51;20.05;;;15.85;;
31210;SDS011;17836;50.948;3.946;2022-09-29T05:30:17;19.35;;;14.68;;
31210;SDS011;17836;50.948;3.946;2022-09-29T05:32:42;20.70;;;15.50;;
31210;SDS011;17836;50.948;3.946;2022-09-29T05:35:08;23.98;;;15.05;;
31210;SDS011;17836;50.948;3.946;2022-09-29T05:37:34;20.13;;;13.95;;
31210;SDS011;17836;50.948;3.946;2022-09-29T05:39:59;23.53;;;14.03;;
31210;SDS011;17836;50.948;3.946;2022-09-29T05:42:24;18.42;;;13.93;;
31210;SDS011;17836;50.948;3.946;2022-09-29T05:44:50;18.95;;;13.98;;
31210;SDS011;17836;50.948;3.946;2022-09-29T05:47:15;19.65;;;14.48;;
31210;SDS011;17836;50.948;3.946;2022-09-29T05:49:40;22.58;;;14.77;;
31210;SDS011;17836;50.948;3.946;2022-09-29T05:52:08;28.17;;;15.48;;
31210;SDS011;17836;50.948;3.946;2022-09-29T05:54:33;18.87;;;14.57;;
31210;SDS011;17836;50.948;3.946;2022-09-29T05:56:59;15.93;;;13.48;;
31210;SDS011;17836;50.948;3.946;2022-09-29T05:59:24;14.63;;;13.17;;
31210;SDS011;17836;50.948;3.946;2022-09-29T06:01:50;19.08;;;12.48;;
31210;SDS011;17836;50.948;3.946;2022-09-29T06:04:16;22.10;;;12.90;;
31210;SDS011;17836;50.948;3.946;2022-09-29T06:06:41;19.48;;;13.13;;
31210;SDS011;17836;50.948;3.946;2022-09-29T06:09:07;16.58;;;13.18;;
31210;SDS011;17836;50.948;3.946;2022-09-29T06:11:32;16.52;;;12.93;;
31210;SDS011;17836;50.948;3.946;2022-09-29T06:13:57;16.35;;;12.07;;
31210;SDS011;17836;50.948;3.946;2022-09-29T06:16:23;18.87;;;13.60;;
31210;SDS011;17836;50.948;3.946;2022-09-29T06:18:51;14.23;;;12.55;;
31210;SDS011;17836;50.948;3.946;2022-09-29T06:21:18;18.27;;;13.63;;
31210;SDS011;17836;50.948;3.946;2022-09-29T06:23:44;13.95;;;12.45;;
31210;SDS011;17836;50.948;3.946;2022-09-29T06:26:10;24.00;;;20.80;;
31210;SDS011;17836;50.948;3.946;2022-09-29T06:28:36;33.85;;;17.00;;
31210;SDS011;17836;50.948;3.946;2022-09-29T06:31:03;55.97;;;23.58;;
31210;SDS011;17836;50.948;3.946;2022-09-29T06:33:29;27.35;;;17.65;;
31210;SDS011;17836;50.948;3.946;2022-09-29T06:35:55;59.47;;;22.42;;
31210;SDS011;17836;50.948;3.946;2022-09-29T06:38:39;32.08;;;21.98;;
31210;SDS011;17836;50.948;3.946;2022-09-29T06:41:06;26.35;;;17.50;;
31210;SDS011;17836;50.948;3.946;2022-09-29T06:43:31;34.25;;;16.60;;
31210;SDS011;17836;50.948;3.946;2022-09-29T06:45:56;48.92;;;19.48;;
31210;SDS011;17836;50.948;3.946;2022-09-29T06:48:22;23.98;;;15.70;;
31210;SDS011;17836;50.948;3.946;2022-09-29T06:50:47;27.47;;;17.17;;
31210;SDS011;17836;50.948;3.946;2022-09-29T06:53:12;39.93;;;17.30;;
31210;SDS011;17836;50.948;3.946;2022-09-29T06:55:38;25.33;;;15.23;;
31210;SDS011;17836;50.948;3.946;2022-09-29T06:58:03;24.60;;;15.23;;
31210;SDS011;17836;50.948;3.946;2022-09-29T07:00:29;25.25;;;14.48;;
31210;SDS011;17836;50.948;3.946;2022-09-29T07:02:54;16.80;;;12.60;;
31210;SDS011;17836;50.948;3.946;2022-09-29T07:05:19;19.55;;;13.73;;
31210;SDS011;17836;50.948;3.946;2022-09-29T07:07:47;22.60;;;14.30;;
31210;SDS011;17836;50.948;3.946;2022-09-29T07:10:15;15.63;;;12.43;;
31210;SDS011;17836;50.948;3.946;2022-09-29T07:12:41;19.17;;;12.50;;
31210;SDS011;17836;50.948;3.946;2022-09-29T07:15:09;17.60;;;12.30;;
31210;SDS011;17836;50.948;3.946;2022-09-29T07:17:34;17.80;;;12.68;;
31210;SDS011;17836;50.948;3.946;2022-09-29T07:20:01;14.38;;;11.77;;
31210;SDS011;17836;50.948;3.946;2022-09-29T07:22:27;24.30;;;13.60;;
31210;SDS011;17836;50.948;3.946;2022-09-29T07:24:52;18.13;;;13.50;;
31210;SDS011;17836;50.948;3.946;2022-09-29T07:27:19;21.45;;;13.00;;
31210;SDS011;17836;50.948;3.946;2022-09-29T07:29:48;16.17;;;12.23;;
31210;SDS011;17836;50.948;3.946;2022-09-29T07:32:13;15.47;;;12.63;;
31210;SDS011;17836;50.948;3.946;2022-09-29T07:34:38;28.20;;;16.23;;
31210;SDS011;17836;50.948;3.946;2022-09-29T07:37:03;20.27;;;11.60;;
31210;SDS011;17836;50.948;3.946;2022-09-29T07:39:29;31.23;;;13.30;;
31210;SDS011;17836;50.948;3.946;2022-09-29T07:41:54;19.13;;;12.37;;
31210;SDS011;17836;50.948;3.946;2022-09-29T07:44:20;22.85;;;14.15;;
31210;SDS011;17836;50.948;3.946;2022-09-29T07:46:47;58.67;;;19.08;;
31210;SDS011;17836;50.948;3.946;2022-09-29T07:49:12;46.30;;;16.52;;
31210;SDS011;17836;50.948;3.946;2022-09-29T07:51:37;27.47;;;13.77;;
31210;SDS011;17836;50.948;3.946;2022-09-29T07:54:03;13.18;;;10.73;;
31210;SDS011;17836;50.948;3.946;2022-09-29T07:56:29;23.60;;;11.90;;
31210;SDS011;17836;50.948;3.946;2022-09-29T07:58:54;14.68;;;10.85;;
31210;SDS011;17836;50.948;3.946;2022-09-29T08:01:20;19.15;;;11.13;;
31210;SDS011;17836;50.948;3.946;2022-09-29T08:03:53;15.50;;;9.25;;
31210;SDS011;17836;50.948;3.946;2022-09-29T08:06:18;12.82;;;9.43;;
31210;SDS011;17836;50.948;3.946;2022-09-29T08:08:44;25.70;;;11.73;;
31210;SDS011;17836;50.948;3.946;2022-09-29T08:11:10;9.93;;;7.93;;
31210;SDS011;17836;50.948;3.946;2022-09-29T08:13:35;9.63;;;8.82;;
31210;SDS011;17836;50.948;3.946;2022-09-29T08:16:02;11.88;;;8.60;;
31210;SDS011;17836;50.948;3.946;2022-09-29T08:18:28;14.68;;;8.40;;
31210;SDS011;17836;50.948;3.946;2022-09-29T08:20:53;9.55;;;7.18;;
31210;SDS011;17836;50.948;3.946;2022-09-29T08:23:19;8.85;;;7.22;;
31210;SDS011;17836;50.948;3.946;2022-09-29T08:25:44;8.07;;;6.68;;
31210;SDS011;17836;50.948;3.946;2022-09-29T08:28:10;11.68;;;7.40;;
31210;SDS011;17836;50.948;3.946;2022-09-29T08:30:35;7.68;;;6.35;;
31210;SDS011;17836;50.948;3.946;2022-09-29T08:33:00;10.27;;;6.23;;
31210;SDS011;17836;50.948;3.946;2022-09-29T08:35:26;7.13;;;5.88;;
31210;SDS011;17836;50.948;3.946;2022-09-29T08:37:52;8.07;;;6.30;;
31210;SDS011;17836;50.948;3.946;2022-09-29T08:40:17;5.78;;;4.80;;
31210;SDS011;17836;50.948;3.946;2022-09-29T08:45:27;11.40;;;6.70;;
31210;SDS011;17836;50.948;3.946;2022-09-29T08:47:54;7.85;;;6.07;;
31210;SDS011;17836;50.948;3.946;2022-09-29T08:50:30;9.32;;;6.63;;
31210;SDS011;17836;50.948;3.946;2022-09-29T08:52:57;6.50;;;4.22;;
31210;SDS011;17836;50.948;3.946;2022-09-29T08:55:33;5.45;;;3.92;;
31210;SDS011;17836;50.948;3.946;2022-09-29T08:57:59;4.97;;;4.10;;
31210;SDS011;17836;50.948;3.946;2022-09-29T09:00:36;3.97;;;3.50;;
31210;SDS011;17836;50.948;3.946;2022-09-29T09:08:02;5.30;;;3.67;;
31210;SDS011;17836;50.948;3.946;2022-09-29T09:18:29;3.45;;;1.65;;
31210;SDS011;17836;50.948;3.946;2022-09-29T09:21:00;5.70;;;2.22;;
31210;SDS011;17836;50.948;3.946;2022-09-29T09:26:03;1.92;;;1.35;;
31210;SDS011;17836;50.948;3.946;2022-09-29T09:29:02;1.98;;;1.42;;
31210;SDS011;17836;50.948;3.946;2022-09-29T09:34:20;6.10;;;1.77;;
31210;SDS011;17836;50.948;3.946;2022-09-29T09:36:38;3.15;;;1.27;;
31210;SDS011;17836;50.948;3.946;2022-09-29T09:41:31;4.43;;;1.67;;
31210;SDS011;17836;50.948;3.946;2022-09-29T09:44:03;2.70;;;1.23;;
31210;SDS011;17836;50.948;3.946;2022-09-29T09:54:12;2.45;;;1.40;;
31210;SDS011;17836;50.948;3.946;2022-09-29T10:01:29;1.38;;;1.00;;
31210;SDS011;17836;50.948;3.946;2022-09-29T10:03:55;3.85;;;1.20;;
31210;SDS011;17836;50.948;3.946;2022-09-29T10:06:21;1.45;;;0.82;;
31210;SDS011;17836;50.948;3.946;2022-09-29T10:08:47;2.97;;;1.20;;
31210;SDS011;17836;50.948;3.946;2022-09-29T10:11:26;3.10;;;1.10;;
31210;SDS011;17836;50.948;3.946;2022-09-29T10:14:12;1.80;;;1.10;;
31210;SDS011;17836;50.948;3.946;2022-09-29T10:19:07;2.10;;;1.08;;
31210;SDS011;17836;50.948;3.946;2022-09-29T10:21:34;3.10;;;1.00;;
31210;SDS011;17836;50.948;3.946;2022-09-29T10:24:00;1.30;;;0.80;;
31210;SDS011;17836;50.948;3.946;2022-09-29T10:26:26;1.02;;;0.82;;
31210;SDS011;17836;50.948;3.946;2022-09-29T10:34:29;1.98;;;0.80;;
31210;SDS011;17836;50.948;3.946;2022-09-29T10:36:33;1.38;;;0.90;;
31210;SDS011;17836;50.948;3.946;2022-09-29T10:39:28;2.92;;;1.13;;
31210;SDS011;17836;50.948;3.946;2022-09-29T10:41:54;0.73;;;0.60;;
31210;SDS011;17836;50.948;3.946;2022-09-29T10:44:20;2.88;;;1.00;;
31210;SDS011;17836;50.948;3.946;2022-09-29T10:46:50;1.55;;;0.80;;
31210;SDS011;17836;50.948;3.946;2022-09-29T10:49:18;2.40;;;0.85;;
31210;SDS011;17836;50.948;3.946;2022-09-29T10:52:03;2.88;;;0.75;;
31210;SDS011;17836;50.948;3.946;2022-09-29T10:54:31;1.98;;;1.05;;
31210;SDS011;17836;50.948;3.946;2022-09-29T10:56:57;0.73;;;0.50;;
31210;SDS011;17836;50.948;3.946;2022-09-29T10:59:23;1.38;;;0.77;;
31210;SDS011;17836;50.948;3.946;2022-09-29T11:01:50;0.90;;;0.73;;
31210;SDS011;17836;50.948;3.946;2022-09-29T11:04:18;3.22;;;1.00;;
31210;SDS011;17836;50.948;3.946;2022-09-29T11:06:44;2.42;;;1.45;;
31210;SDS011;17836;50.948;3.946;2022-09-29T11:14:23;1.50;;;0.85;;
31210;SDS011;17836;50.948;3.946;2022-09-29T11:16:51;1.92;;;0.90;;
31210;SDS011;17836;50.948;3.946;2022-09-29T11:19:17;1.75;;;0.85;;
31210;SDS011;17836;50.948;3.946;2022-09-29T11:21:48;2.07;;;0.83;;
31210;SDS011;17836;50.948;3.946;2022-09-29T11:24:20;2.58;;;0.77;;
31210;SDS011;17836;50.948;3.946;2022-09-29T11:29:34;3.80;;;0.93;;
31210;SDS011;17836;50.948;3.946;2022-09-29T11:39:48;1.07;;;0.57;;
31210;SDS011;17836;50.948;3.946;2022-09-29T11:42:30;2.42;;;0.70;;
31210;SDS011;17836;50.948;3.946;2022-09-29T11:45:04;1.95;;;0.73;;
31210;SDS011;17836;50.948;3.946;2022-09-29T11:48:00;0.95;;;0.70;;
31210;SDS011;17836;50.948;3.946;2022-09-29T11:50:22;1.65;;;0.93;;
31210;SDS011;17836;50.948;3.946;2022-09-29T11:58:13;0.55;;;0.38;;
31210;SDS011;17836;50.948;3.946;2022-09-29T12:00:56;0.35;;;0.28;;
31210;SDS011;17836;50.948;3.946;2022-09-29T12:13:52;0.57;;;0.57;;
31210;SDS011;17836;50.948;3.946;2022-09-29T12:16:20;0.70;;;0.70;;
31210;SDS011;17836;50.948;3.946;2022-09-29T12:18:51;1.58;;;0.70;;
31210;SDS011;17836;50.948;3.946;2022-09-29T12:21:30;0.52;;;0.50;;
31210;SDS011;17836;50.948;3.946;2022-09-29T12:23:56;1.05;;;0.80;;
31210;SDS011;17836;50.948;3.946;2022-09-29T12:26:23;2.80;;;1.70;;
31210;SDS011;17836;50.948;3.946;2022-09-29T12:28:53;1.25;;;1.02;;
31210;SDS011;17836;50.948;3.946;2022-09-29T12:33:47;1.30;;;0.73;;
31210;SDS011;17836;50.948;3.946;2022-09-29T12:39:19;1.98;;;0.63;;
31210;SDS011;17836;50.948;3.946;2022-09-29T12:41:51;2.42;;;0.63;;
31210;SDS011;17836;50.948;3.946;2022-09-29T12:46:53;1.07;;;0.60;;
31210;SDS011;17836;50.948;3.946;2022-09-29T12:51:50;0.93;;;0.60;;
31210;SDS011;17836;50.948;3.946;2022-09-29T12:54:20;1.95;;;0.50;;
31210;SDS011;17836;50.948;3.946;2022-09-29T13:01:59;1.02;;;0.60;;
31210;SDS011;17836;50.948;3.946;2022-09-29T13:04:46;0.98;;;0.68;;
31210;SDS011;17836;50.948;3.946;2022-09-29T13:07:27;1.88;;;1.10;;
31210;SDS011;17836;50.948;3.946;2022-09-29T13:20:01;1.80;;;1.30;;
31210;SDS011;17836;50.948;3.946;2022-09-29T13:22:37;2.53;;;1.08;;
31210;SDS011;17836;50.948;3.946;2022-09-29T13:27:31;3.65;;;1.38;;
31210;SDS011;17836;50.948;3.946;2022-09-29T13:32:38;1.10;;;1.00;;
31210;SDS011;17836;50.948;3.946;2022-09-29T13:35:09;1.83;;;1.10;;
31210;SDS011;17836;50.948;3.946;2022-09-29T13:37:42;2.08;;;1.42;;
31210;SDS011;17836;50.948;3.946;2022-09-29T13:40:08;0.90;;;0.90;;
31210;SDS011;17836;50.948;3.946;2022-09-29T13:47:47;2.70;;;2.30;;
31210;SDS011;17836;50.948;3.946;2022-09-29T13:58:25;6.15;;;2.70;;
31210;SDS011;17836;50.948;3.946;2022-09-29T14:00:51;2.45;;;1.60;;
31210;SDS011;17836;50.948;3.946;2022-09-29T14:03:27;2.47;;;1.60;;
31210;SDS011;17836;50.948;3.946;2022-09-29T14:06:03;3.10;;;1.50;;
31210;SDS011;17836;50.948;3.946;2022-09-29T14:08:30;1.95;;;1.85;;
31210;SDS011;17836;50.948;3.946;2022-09-29T14:11:02;2.20;;;1.73;;
31210;SDS011;17836;50.948;3.946;2022-09-29T14:13:46;1.42;;;1.30;;
31210;SDS011;17836;50.948;3.946;2022-09-29T14:16:15;1.88;;;1.05;;
31210;SDS011;17836;50.948;3.946;2022-09-29T14:18:44;4.90;;;1.40;;
31210;SDS011;17836;50.948;3.946;2022-09-29T14:21:12;1.30;;;1.20;;
31210;SDS011;17836;50.948;3.946;2022-09-29T14:28:53;3.78;;;1.40;;
31210;SDS011;17836;50.948;3.946;2022-09-29T14:31:20;2.90;;;1.08;;
31210;SDS011;17836;50.948;3.946;2022-09-29T14:33:47;2.05;;;1.08;;
31210;SDS011;17836;50.948;3.946;2022-09-29T14:36:15;4.10;;;1.45;;
31210;SDS011;17836;50.948;3.946;2022-09-29T14:38:42;1.95;;;1.10;;
31210;SDS011;17836;50.948;3.946;2022-09-29T14:43:38;2.63;;;1.08;;
31210;SDS011;17836;50.948;3.946;2022-09-29T14:51:44;1.45;;;1.00;;
31210;SDS011;17836;50.948;3.946;2022-09-29T14:54:45;2.78;;;0.80;;
31210;SDS011;17836;50.948;3.946;2022-09-29T14:57:25;2.35;;;1.20;;
31210;SDS011;17836;50.948;3.946;2022-09-29T15:02:28;1.60;;;0.70;;
31210;SDS011;17836;50.948;3.946;2022-09-29T15:04:54;1.73;;;0.60;;
31210;SDS011;17836;50.948;3.946;2022-09-29T15:07:24;1.30;;;0.60;;
31210;SDS011;17836;50.948;3.946;2022-09-29T15:09:51;1.67;;;0.85;;
31210;SDS011;17836;50.948;3.946;2022-09-29T15:12:27;3.10;;;0.73;;
31210;SDS011;17836;50.948;3.946;2022-09-29T15:14:54;2.83;;;0.73;;
31210;SDS011;17836;50.948;3.946;2022-09-29T15:27:15;0.82;;;0.60;;
31210;SDS011;17836;50.948;3.946;2022-09-29T15:29:45;2.28;;;0.60;;
31210;SDS011;17836;50.948;3.946;2022-09-29T15:32:21;2.20;;;0.80;;
31210;SDS011;17836;50.948;3.946;2022-09-29T15:34:49;2.40;;;0.80;;
31210;SDS011;17836;50.948;3.946;2022-09-29T15:37:14;1.70;;;0.98;;
31210;SDS011;17836;50.948;3.946;2022-09-29T15:39:42;0.60;;;0.60;;
31210;SDS011;17836;50.948;3.946;2022-09-29T15:42:13;0.82;;;0.40;;
31210;SDS011;17836;50.948;3.946;2022-09-29T15:44:43;2.50;;;0.63;;
31210;SDS011;17836;50.948;3.946;2022-09-29T15:47:13;0.82;;;0.40;;
31210;SDS011;17836;50.948;3.946;2022-09-29T15:49:48;2.50;;;0.80;;
31210;SDS011;17836;50.948;3.946;2022-09-29T15:52:13;1.00;;;0.40;;
31210;SDS011;17836;50.948;3.946;2022-09-29T15:54:43;0.95;;;0.60;;
31210;SDS011;17836;50.948;3.946;2022-09-29T15:57:51;0.50;;;0.50;;
31210;SDS011;17836;50.948;3.946;2022-09-29T16:00:14;0.90;;;0.68;;
31210;SDS011;17836;50.948;3.946;2022-09-29T16:03:09;1.85;;;0.40;;
31210;SDS011;17836;50.948;3.946;2022-09-29T16:05:37;1.65;;;0.68;;
31210;SDS011;17836;50.948;3.946;2022-09-29T16:08:18;0.43;;;0.43;;
31210;SDS011;17836;50.948;3.946;2022-09-29T16:11:00;0.82;;;0.52;;
31210;SDS011;17836;50.948;3.946;2022-09-29T16:13:27;1.92;;;0.63;;
31210;SDS011;17836;50.948;3.946;2022-09-29T16:15:57;2.75;;;1.10;;
31210;SDS011;17836;50.948;3.946;2022-09-29T16:18:25;2.80;;;0.98;;
31210;SDS011;17836;50.948;3.946;2022-09-29T16:20:53;2.00;;;0.80;;
31210;SDS011;17836;50.948;3.946;2022-09-29T16:25:45;8.05;;;1.50;;
31210;SDS011;17836;50.948;3.946;2022-09-29T16:28:31;1.70;;;0.90;;
31210;SDS011;17836;50.948;3.946;2022-09-29T16:31:01;3.20;;;1.20;;
31210;SDS011;17836;50.948;3.946;2022-09-29T16:33:27;1.85;;;1.08;;
31210;SDS011;17836;50.948;3.946;2022-09-29T16:41:08;2.63;;;0.73;;
31210;SDS011;17836;50.948;3.946;2022-09-29T16:43:34;2.13;;;1.35;;
31210;SDS011;17836;50.948;3.946;2022-09-29T16:46:00;2.33;;;1.00;;
31210;SDS011;17836;50.948;3.946;2022-09-29T16:48:29;0.90;;;0.80;;
31210;SDS011;17836;50.948;3.946;2022-09-29T16:50:59;6.25;;;4.80;;
31210;SDS011;17836;50.948;3.946;2022-09-29T16:53:26;10.10;;;7.38;;
31210;SDS011;17836;50.948;3.946;2022-09-29T16:56:02;12.02;;;6.40;;
31210;SDS011;17836;50.948;3.946;2022-09-29T16:58:28;5.45;;;3.25;;
31210;SDS011;17836;50.948;3.946;2022-09-29T17:00:54;7.97;;;2.75;;
31210;SDS011;17836;50.948;3.946;2022-09-29T17:03:20;3.90;;;1.73;;
31210;SDS011;17836;50.948;3.946;2022-09-29T17:05:46;2.22;;;1.15;;
31210;SDS011;17836;50.948;3.946;2022-09-29T17:08:17;2.67;;;1.42;;
31210;SDS011;17836;50.948;3.946;2022-09-29T17:10:45;5.05;;;1.92;;
31210;SDS011;17836;50.948;3.946;2022-09-29T17:13:10;3.63;;;1.23;;
31210;SDS011;17836;50.948;3.946;2022-09-29T17:15:37;1.55;;;1.17;;
31210;SDS011;17836;50.948;3.946;2022-09-29T17:18:03;2.90;;;1.42;;
31210;SDS011;17836;50.948;3.946;2022-09-29T17:20:28;4.97;;;2.00;;
31210;SDS011;17836;50.948;3.946;2022-09-29T17:22:54;3.13;;;1.63;;
31210;SDS011;17836;50.948;3.946;2022-09-29T17:25:19;2.70;;;2.50;;
31210;SDS011;17836;50.948;3.946;2022-09-29T17:27:44;4.55;;;2.95;;
31210;SDS011;17836;50.948;3.946;2022-09-29T17:30:28;4.45;;;2.58;;
31210;SDS011;17836;50.948;3.946;2022-09-29T17:32:54;4.03;;;2.30;;
31210;SDS011;17836;50.948;3.946;2022-09-29T17:35:22;3.03;;;1.90;;
31210;SDS011;17836;50.948;3.946;2022-09-29T17:37:48;9.02;;;3.05;;
31210;SDS011;17836;50.948;3.946;2022-09-29T17:40:21;3.22;;;2.15;;
31210;SDS011;17836;50.948;3.946;2022-09-29T17:42:48;3.45;;;2.00;;
31210;SDS011;17836;50.948;3.946;2022-09-29T17:45:14;6.38;;;2.38;;
31210;SDS011;17836;50.948;3.946;2022-09-29T17:47:40;3.97;;;2.22;;
31210;SDS011;17836;50.948;3.946;2022-09-29T17:50:27;3.47;;;2.35;;
31210;SDS011;17836;50.948;3.946;2022-09-29T17:52:52;4.32;;;2.15;;
31210;SDS011;17836;50.948;3.946;2022-09-29T17:55:18;9.40;;;2.55;;
31210;SDS011;17836;50.948;3.946;2022-09-29T17:57:46;8.75;;;2.65;;